createdAt,value
2023-03-27T00:00:13.579Z,79.60
2023-03-27T00:02:42.157Z,79.30
2023-03-27T00:05:10.836Z,79.10
2023-03-27T00:07:41.780Z,79.40
2023-03-27T00:10:10.562Z,79.40
2023-03-27T00:12:39.633Z,79.60
2023-03-27T00:15:08.587Z,79.10
2023-03-27T00:17:37.434Z,78.40
2023-03-27T00:20:06.640Z,77.70
2023-03-27T00:22:34.614Z,76.90
2023-03-27T00:25:02.853Z,76.60
2023-03-27T00:27:30.929Z,75.60
2023-03-27T00:29:59.097Z,75.70
2023-03-27T00:32:27.203Z,75.40
2023-03-27T00:34:55.227Z,75.60
2023-03-27T00:37:23.449Z,75.80
2023-03-27T00:39:51.604Z,76.40
2023-03-27T00:42:23.526Z,76.50
2023-03-27T00:44:52.895Z,76.60
2023-03-27T00:47:31.603Z,76.50
2023-03-27T00:50:03.512Z,76.10
2023-03-27T00:52:33.717Z,75.90
2023-03-27T00:55:08.915Z,75.30
2023-03-27T00:57:37.566Z,74.50
2023-03-27T01:00:13.648Z,73.50
2023-03-27T01:02:44.984Z,73.10
2023-03-27T01:05:13.883Z,72.90
2023-03-27T01:08:00.020Z,73.10
2023-03-27T01:10:52.786Z,73.50
2023-03-27T01:14:05.410Z,74.00
2023-03-27T01:17:00.380Z,73.90
2023-03-27T01:19:30.965Z,73.60
2023-03-27T01:22:20.299Z,73.00
2023-03-27T01:25:08.406Z,72.60
2023-03-27T01:28:14.801Z,72.70
2023-03-27T01:30:50.540Z,73.10
2023-03-27T01:33:49.104Z,72.60
2023-03-27T01:36:55.964Z,72.60
2023-03-27T01:39:43.651Z,72.50
2023-03-27T01:42:19.187Z,72.60
2023-03-27T01:45:03.527Z,72.50
2023-03-27T01:47:40.889Z,72.30
2023-03-27T01:50:38.506Z,72.30
2023-03-27T01:53:13.723Z,71.90
2023-03-27T01:55:47.710Z,71.80
2023-03-27T01:58:33.821Z,71.70
2023-03-27T02:01:03.447Z,71.60
2023-03-27T02:03:34.108Z,71.90
2023-03-27T02:06:05.150Z,71.90
2023-03-27T02:08:55.665Z,72.10
2023-03-27T02:11:30.565Z,71.80
2023-03-27T02:14:03.041Z,72.00
2023-03-27T02:16:34.402Z,72.30
2023-03-27T02:19:09.423Z,72.80
2023-03-27T02:21:38.388Z,72.70
2023-03-27T02:24:06.772Z,72.80
2023-03-27T02:26:35.139Z,72.60
2023-03-27T02:29:32.420Z,72.40
2023-03-27T02:32:13.652Z,71.80
2023-03-27T02:35:03.348Z,71.70
2023-03-27T02:37:40.757Z,71.70
2023-03-27T02:40:56.758Z,72.00
2023-03-27T02:44:26.838Z,72.30
2023-03-27T02:47:11.080Z,72.70
2023-03-27T02:49:48.375Z,73.10
2023-03-27T02:52:52.557Z,73.40
2023-03-27T02:55:33.795Z,73.60
2023-03-27T02:58:07.209Z,73.70
2023-03-27T03:00:49.664Z,73.90
2023-03-27T03:03:54.218Z,74.00
2023-03-27T03:06:33.574Z,73.80
2023-03-27T03:09:06.815Z,74.00
2023-03-27T03:11:37.097Z,74.20
2023-03-27T03:14:06.829Z,74.40
2023-03-27T03:16:35.054Z,74.50
2023-03-27T03:19:03.675Z,74.70
2023-03-27T03:21:32.542Z,75.00
2023-03-27T03:24:00.601Z,75.30
2023-03-27T03:26:30.538Z,75.40
2023-03-27T03:29:01.963Z,75.70
2023-03-27T03:31:43.886Z,75.70
2023-03-27T03:34:13.887Z,75.40
2023-03-27T03:36:45.453Z,75.30
2023-03-27T03:39:13.626Z,75.40
2023-03-27T03:41:43.453Z,75.40
2023-03-27T03:44:11.704Z,75.50
2023-03-27T03:46:41.336Z,75.70
2023-03-27T03:49:10.087Z,75.90
2023-03-27T03:51:38.395Z,76.10
2023-03-27T03:54:07.549Z,76.30
2023-03-27T03:56:37.750Z,76.20
2023-03-27T03:59:06.114Z,76.10
2023-03-27T04:01:34.923Z,76.10
2023-03-27T04:04:06.269Z,75.90
2023-03-27T04:06:58.550Z,75.90
2023-03-27T04:09:33.116Z,76.40
2023-03-27T04:12:16.282Z,76.20
2023-03-27T04:15:10.572Z,76.00
2023-03-27T04:18:01.381Z,76.10
2023-03-27T04:20:35.526Z,76.70
2023-03-27T04:23:12.923Z,76.90
2023-03-27T04:25:53.043Z,77.10
2023-03-27T04:28:36.203Z,77.20
2023-03-27T04:31:29.794Z,77.20
2023-03-27T04:34:21.166Z,77.30
2023-03-27T04:37:07.321Z,77.10
2023-03-27T04:39:43.444Z,77.00
2023-03-27T04:42:11.609Z,77.10
2023-03-27T04:44:39.821Z,77.20
2023-03-27T04:47:10.928Z,77.30
2023-03-27T04:49:47.177Z,76.70
2023-03-27T04:52:30.322Z,76.20
2023-03-27T04:55:02.366Z,75.60
2023-03-27T04:57:33.399Z,75.20
2023-03-27T05:00:15.002Z,74.60
2023-03-27T05:02:53.234Z,74.80
2023-03-27T05:05:46.974Z,73.40
2023-03-27T05:08:15.057Z,72.10
2023-03-27T05:10:44.331Z,71.30
2023-03-27T05:13:13.146Z,71.50
2023-03-27T05:15:41.790Z,70.60
2023-03-27T05:18:13.733Z,69.40
2023-03-27T05:20:42.009Z,69.00
2023-03-27T05:23:11.308Z,68.80
2023-03-27T05:26:00.696Z,69.10
2023-03-27T05:28:54.850Z,69.30
2023-03-27T05:31:23.743Z,69.20
2023-03-27T05:34:03.381Z,69.30
2023-03-27T05:36:35.914Z,68.70
2023-03-27T05:39:05.300Z,69.60
2023-03-27T05:41:39.691Z,69.00
2023-03-27T05:44:08.758Z,69.00
2023-03-27T05:46:41.871Z,69.90
2023-03-27T05:49:18.678Z,71.60
2023-03-27T05:51:52.077Z,72.60
2023-03-27T05:54:22.049Z,72.50
2023-03-27T05:56:57.026Z,72.80
2023-03-27T05:59:27.016Z,73.60
2023-03-27T06:02:01.662Z,73.10
2023-03-27T06:04:43.820Z,73.10
2023-03-27T06:07:18.032Z,73.30
2023-03-27T06:09:49.781Z,73.40
2023-03-27T06:12:33.272Z,73.70
2023-03-27T06:15:16.094Z,74.70
2023-03-27T06:17:52.330Z,74.10
2023-03-27T06:20:22.276Z,70.40
2023-03-27T06:22:56.213Z,64.50
2023-03-27T06:25:33.543Z,65.70
2023-03-27T06:28:05.188Z,70.50
2023-03-27T06:30:41.756Z,71.20
2023-03-27T06:33:30.441Z,69.00
2023-03-27T06:36:01.606Z,68.60
2023-03-27T06:38:37.738Z,69.90
2023-03-27T06:41:06.419Z,64.30
2023-03-27T06:43:53.611Z,65.70
2023-03-27T06:46:44.673Z,59.00
2023-03-27T06:49:28.033Z,66.50
2023-03-27T06:51:56.632Z,56.30
2023-03-27T06:54:24.692Z,55.70
2023-03-27T06:56:56.204Z,54.50
2023-03-27T06:59:24.488Z,53.30
2023-03-27T07:02:01.964Z,51.70
2023-03-27T07:04:30.131Z,51.30
2023-03-27T07:07:21.456Z,50.30
2023-03-27T07:09:50.447Z,50.50
2023-03-27T07:12:23.298Z,48.60
2023-03-27T07:14:51.936Z,57.80
2023-03-27T07:17:19.775Z,52.60
2023-03-27T07:19:50.039Z,50.40
2023-03-27T07:22:24.614Z,49.20
2023-03-27T07:24:53.006Z,49.70
2023-03-27T07:27:21.606Z,49.50
2023-03-27T07:29:49.841Z,49.90
2023-03-27T07:32:36.261Z,49.00
2023-03-27T07:35:06.888Z,49.60
2023-03-27T07:37:58.940Z,51.00
2023-03-27T07:40:40.081Z,51.10
2023-03-27T07:43:41.581Z,51.40
2023-03-27T07:46:14.215Z,51.10
2023-03-27T07:48:42.541Z,51.40
2023-03-27T07:51:17.449Z,51.70
2023-03-27T07:53:46.129Z,52.90
2023-03-27T07:56:23.744Z,51.50
2023-03-27T07:59:12.056Z,52.00
2023-03-27T08:01:42.939Z,50.40
2023-03-27T08:04:11.544Z,50.90
2023-03-27T08:06:43.166Z,50.60
2023-03-27T08:09:18.434Z,49.50
2023-03-27T08:11:47.818Z,48.40
2023-03-27T08:14:16.861Z,48.60
2023-03-27T08:16:45.464Z,48.50
2023-03-27T08:19:14.811Z,49.70
2023-03-27T08:21:48.073Z,49.70
2023-03-27T08:24:16.956Z,50.80
2023-03-27T08:27:20.249Z,50.10
2023-03-27T08:29:48.851Z,49.60
2023-03-27T08:32:18.135Z,49.90
2023-03-27T08:34:48.702Z,50.20
2023-03-27T08:37:24.827Z,50.70
2023-03-27T08:40:26.782Z,50.60
2023-03-27T08:43:19.275Z,51.30
2023-03-27T08:46:14.454Z,52.20
2023-03-27T08:49:07.368Z,54.00
2023-03-27T08:52:22.033Z,53.40
2023-03-27T08:55:00.409Z,52.60
2023-03-27T08:57:38.174Z,51.10
2023-03-27T09:00:24.121Z,49.90
2023-03-27T09:03:34.141Z,48.80
2023-03-27T09:06:06.855Z,47.90
2023-03-27T09:08:51.405Z,48.70
2023-03-27T09:11:43.659Z,49.50
2023-03-27T09:14:35.997Z,48.10
2023-03-27T09:17:21.964Z,47.00
2023-03-27T09:20:11.081Z,44.60
2023-03-27T09:22:50.232Z,43.40
2023-03-27T09:25:38.550Z,45.10
2023-03-27T09:28:30.974Z,44.90
2023-03-27T09:31:49.196Z,43.60
2023-03-27T09:34:26.993Z,44.30
2023-03-27T09:36:56.571Z,44.30
2023-03-27T09:39:32.412Z,43.10
2023-03-27T09:42:29.461Z,44.00
2023-03-27T09:45:02.638Z,44.30
2023-03-27T09:47:41.156Z,44.90
2023-03-27T09:50:46.613Z,46.20
2023-03-27T09:53:36.071Z,45.30
2023-03-27T09:56:15.392Z,45.10
2023-03-27T09:58:52.386Z,44.80
2023-03-27T10:01:36.448Z,44.80
2023-03-27T10:04:18.008Z,44.40
2023-03-27T10:07:02.483Z,43.80
2023-03-27T10:10:13.059Z,45.90
2023-03-27T10:13:01.992Z,46.60
2023-03-27T10:15:45.383Z,45.30
2023-03-27T10:18:28.200Z,44.90
2023-03-27T10:21:43.965Z,45.00
2023-03-27T10:24:28.268Z,45.20
2023-03-27T10:27:33.968Z,43.90
2023-03-27T10:30:38.640Z,44.50
2023-03-27T10:33:37.159Z,43.60
2023-03-27T10:36:41.149Z,43.40
2023-03-27T10:39:17.548Z,43.50
2023-03-27T10:42:09.029Z,43.40
2023-03-27T10:44:41.684Z,43.60
2023-03-27T10:47:32.169Z,43.80
2023-03-27T10:50:19.045Z,43.30
2023-03-27T10:53:03.786Z,42.70
2023-03-27T10:56:04.255Z,42.90
2023-03-27T10:58:46.509Z,40.40
2023-03-27T11:01:32.622Z,41.10
2023-03-27T11:04:21.665Z,41.40
2023-03-27T11:06:58.060Z,41.40
2023-03-27T11:09:56.454Z,40.90
2023-03-27T11:12:33.581Z,40.80
2023-03-27T11:15:20.175Z,41.00
2023-03-27T11:17:52.633Z,40.80
2023-03-27T11:21:13.382Z,40.10
2023-03-27T11:24:04.246Z,39.60
2023-03-27T11:27:27.001Z,40.00
2023-03-27T11:30:14.869Z,39.40
2023-03-27T11:33:29.763Z,39.10
2023-03-27T11:36:17.252Z,40.20
2023-03-27T11:39:02.768Z,39.50
2023-03-27T11:41:32.727Z,38.80
2023-03-27T11:44:02.800Z,39.40
2023-03-27T11:47:19.170Z,39.00
2023-03-27T11:50:25.378Z,40.10
2023-03-27T11:53:16.198Z,41.40
2023-03-27T11:56:34.756Z,40.60
2023-03-27T11:59:57.655Z,40.10
2023-03-27T12:02:53.563Z,39.30
2023-03-27T12:05:29.658Z,39.40
2023-03-27T12:08:15.850Z,38.70
2023-03-27T12:10:50.339Z,38.90
2023-03-27T12:14:00.536Z,40.10
2023-03-27T12:17:12.823Z,38.60
2023-03-27T12:20:30.478Z,38.80
2023-03-27T12:23:10.357Z,39.50
2023-03-27T12:26:19.804Z,40.10
2023-03-27T12:29:34.410Z,40.90
2023-03-27T12:32:42.156Z,41.90
2023-03-27T12:35:21.496Z,41.40
2023-03-27T12:38:11.937Z,41.80
2023-03-27T12:40:48.178Z,42.20
2023-03-27T12:43:20.149Z,41.80
2023-03-27T12:46:32.291Z,42.70
2023-03-27T12:49:00.506Z,41.50
2023-03-27T12:52:04.921Z,41.20
2023-03-27T12:55:15.732Z,40.50
2023-03-27T12:58:05.924Z,39.10
2023-03-27T13:01:01.144Z,39.90
2023-03-27T13:04:14.949Z,38.50
2023-03-27T13:07:01.222Z,36.60
2023-03-27T13:10:13.821Z,36.90
2023-03-27T13:13:04.785Z,37.60
2023-03-27T13:15:58.322Z,37.50
2023-03-27T13:19:19.117Z,36.90
2023-03-27T13:22:26.462Z,36.10
2023-03-27T13:25:10.086Z,35.60
2023-03-27T13:28:20.444Z,35.40
2023-03-27T13:31:00.493Z,35.20
2023-03-27T13:33:48.560Z,35.70
2023-03-27T13:36:31.592Z,35.90
2023-03-27T13:39:05.145Z,37.10
2023-03-27T13:41:46.578Z,36.80
2023-03-27T13:44:28.656Z,37.30
2023-03-27T13:47:34.985Z,35.90
2023-03-27T13:50:39.425Z,36.10
2023-03-27T13:53:37.842Z,38.20
2023-03-27T13:56:36.991Z,40.80
2023-03-27T13:59:58.749Z,43.40
2023-03-27T14:03:29.037Z,43.90
2023-03-27T14:06:11.149Z,44.20
2023-03-27T14:09:00.209Z,46.20
2023-03-27T14:12:21.077Z,44.10
2023-03-27T14:15:43.862Z,42.80
2023-03-27T14:18:47.391Z,39.90
2023-03-27T14:21:31.454Z,39.50
2023-03-27T14:24:27.921Z,40.30
2023-03-27T14:27:11.512Z,42.30
2023-03-27T14:29:40.728Z,42.80
2023-03-27T14:32:16.072Z,43.70
2023-03-27T14:34:54.700Z,44.40
2023-03-27T14:37:36.597Z,42.60
2023-03-27T14:40:34.124Z,41.10
2023-03-27T14:43:08.397Z,40.80
2023-03-27T14:45:41.231Z,40.70
2023-03-27T14:48:22.325Z,39.80
2023-03-27T14:50:55.556Z,39.40
2023-03-27T14:53:31.800Z,39.50
2023-03-27T14:56:16.464Z,38.90
2023-03-27T14:59:13.613Z,39.60
2023-03-27T15:01:57.692Z,39.80
2023-03-27T15:04:30.566Z,40.90
2023-03-27T15:07:21.200Z,41.40
2023-03-27T15:10:24.625Z,42.00
2023-03-27T15:13:10.995Z,42.90
2023-03-27T15:15:47.471Z,43.00
2023-03-27T15:18:25.663Z,43.50
2023-03-27T15:20:55.423Z,43.80
2023-03-27T15:23:37.956Z,44.20
2023-03-27T15:26:15.327Z,45.00
2023-03-27T15:28:53.740Z,45.60
2023-03-27T15:31:22.151Z,45.00
2023-03-27T15:34:04.171Z,45.90
2023-03-27T15:36:35.381Z,46.10
2023-03-27T15:39:05.945Z,47.00
2023-03-27T15:41:34.069Z,46.60
2023-03-27T15:44:23.260Z,45.80
2023-03-27T15:46:58.160Z,46.00
2023-03-27T15:49:32.949Z,45.80
2023-03-27T15:52:21.478Z,46.80
2023-03-27T15:54:56.944Z,46.30
2023-03-27T15:57:26.623Z,45.10
2023-03-27T16:00:09.177Z,45.30
2023-03-27T16:02:43.607Z,46.50
2023-03-27T16:05:20.774Z,45.90
2023-03-27T16:07:49.469Z,46.70
2023-03-27T16:10:34.583Z,46.80
2023-03-27T16:13:04.384Z,44.90
2023-03-27T16:15:45.483Z,45.10
2023-03-27T16:18:35.034Z,44.20
2023-03-27T16:21:13.703Z,43.50
2023-03-27T16:23:42.601Z,43.00
2023-03-27T16:26:17.938Z,42.30
2023-03-27T16:28:46.102Z,43.20
2023-03-27T16:31:19.423Z,43.50
2023-03-27T16:33:47.956Z,45.50
2023-03-27T16:36:24.970Z,46.80
2023-03-27T16:38:53.108Z,47.90
2023-03-27T16:41:21.075Z,48.80
2023-03-27T16:43:49.476Z,49.20
2023-03-27T16:46:22.802Z,50.10
2023-03-27T16:48:52.818Z,50.90
2023-03-27T16:51:24.873Z,50.50
2023-03-27T16:53:55.787Z,50.60
2023-03-27T16:56:24.448Z,50.70
2023-03-27T16:58:52.275Z,51.50
2023-03-27T17:01:20.515Z,52.70
2023-03-27T17:03:48.325Z,53.20
2023-03-27T17:06:19.445Z,53.80
2023-03-27T17:08:49.038Z,53.90
2023-03-27T17:11:17.176Z,53.70
2023-03-27T17:13:45.396Z,54.30
2023-03-27T17:16:14.389Z,55.10
2023-03-27T17:18:42.436Z,54.60
2023-03-27T17:21:10.298Z,54.90
2023-03-27T17:23:38.527Z,55.20
2023-03-27T17:26:06.824Z,55.80
2023-03-27T17:28:35.525Z,56.30
2023-03-27T17:31:05.108Z,55.50
2023-03-27T17:33:37.216Z,55.00
2023-03-27T17:36:14.125Z,55.30
2023-03-27T17:38:43.501Z,55.40
2023-03-27T17:41:13.480Z,55.60
2023-03-27T17:43:41.644Z,56.10
2023-03-27T17:46:09.609Z,56.30
2023-03-27T17:48:37.806Z,56.70
2023-03-27T17:51:09.382Z,56.90
2023-03-27T17:53:41.093Z,57.00
2023-03-27T17:56:10.152Z,57.40
2023-03-27T17:58:37.925Z,57.60
2023-03-27T18:01:17.209Z,58.00
2023-03-27T18:03:45.628Z,58.10
2023-03-27T18:06:14.903Z,58.40
2023-03-27T18:08:42.967Z,58.60
2023-03-27T18:11:12.536Z,58.70
2023-03-27T18:13:41.922Z,58.70
2023-03-27T18:16:13.535Z,58.80
2023-03-27T18:18:41.634Z,59.10
2023-03-27T18:21:09.496Z,59.70
2023-03-27T18:23:46.557Z,59.50
2023-03-27T18:26:15.891Z,59.70
2023-03-27T18:28:43.970Z,60.20
2023-03-27T18:31:13.364Z,60.50
2023-03-27T18:33:41.466Z,60.30
2023-03-27T18:36:11.059Z,60.40
2023-03-27T18:38:41.124Z,60.60
2023-03-27T18:41:10.219Z,60.90
2023-03-27T18:43:38.373Z,60.80
2023-03-27T18:46:08.230Z,60.90
2023-03-27T18:48:36.747Z,60.80
2023-03-27T18:51:06.455Z,60.80
2023-03-27T18:53:34.644Z,61.10
2023-03-27T18:56:03.098Z,60.70
2023-03-27T18:58:31.584Z,61.10
2023-03-27T19:01:00.441Z,61.30
2023-03-27T19:03:35.715Z,61.30
2023-03-27T19:06:07.060Z,61.40
2023-03-27T19:08:38.134Z,61.10
2023-03-27T19:11:10.374Z,61.40
2023-03-27T19:13:57.205Z,62.10
2023-03-27T19:16:38.137Z,61.50
2023-03-27T19:19:18.636Z,61.70
2023-03-27T19:21:53.181Z,61.40
2023-03-27T19:24:47.948Z,61.30
2023-03-27T19:27:23.517Z,61.50
2023-03-27T19:29:54.393Z,61.70
2023-03-27T19:32:24.457Z,61.70
2023-03-27T19:34:52.852Z,61.70
2023-03-27T19:37:20.912Z,61.80
2023-03-27T19:39:48.946Z,61.00
2023-03-27T19:42:17.704Z,61.20
2023-03-27T19:44:45.764Z,61.20
2023-03-27T19:47:13.701Z,61.40
2023-03-27T19:49:43.335Z,61.60
2023-03-27T19:52:28.264Z,61.90
2023-03-27T19:54:56.542Z,61.80
2023-03-27T19:57:25.095Z,61.80
2023-03-27T19:59:53.703Z,61.80
2023-03-27T20:02:21.673Z,61.30
2023-03-27T20:04:50.359Z,60.90
2023-03-27T20:07:18.210Z,61.20
2023-03-27T20:09:46.574Z,60.40
2023-03-27T20:12:14.583Z,59.50
2023-03-27T20:14:44.848Z,59.90
2023-03-27T20:17:27.959Z,59.80
2023-03-27T20:19:57.052Z,60.80
2023-03-27T20:22:30.624Z,61.10
2023-03-27T20:24:58.969Z,60.80
2023-03-27T20:27:30.262Z,59.60
2023-03-27T20:29:58.315Z,59.80
2023-03-27T20:32:26.469Z,59.60
2023-03-27T20:34:57.404Z,60.10
2023-03-27T20:37:27.365Z,60.30
2023-03-27T20:40:12.106Z,60.60
2023-03-27T20:42:48.054Z,61.20
2023-03-27T20:45:27.244Z,61.80
2023-03-27T20:47:55.234Z,61.70
2023-03-27T20:50:24.375Z,61.50
2023-03-27T20:52:58.416Z,61.30
2023-03-27T20:55:33.770Z,61.80
2023-03-27T20:58:07.112Z,61.50
2023-03-27T21:00:35.931Z,60.20
2023-03-27T21:03:04.516Z,59.00
2023-03-27T21:05:33.196Z,58.80
2023-03-27T21:08:01.328Z,59.40
2023-03-27T21:10:29.176Z,58.50
2023-03-27T21:12:57.789Z,57.60
2023-03-27T21:15:25.803Z,57.30
2023-03-27T21:17:53.863Z,57.00
2023-03-27T21:20:26.250Z,56.80
2023-03-27T21:22:54.276Z,56.00
2023-03-27T21:25:23.365Z,55.80
2023-03-27T21:27:59.594Z,55.90
2023-03-27T21:30:46.270Z,56.20
2023-03-27T21:33:16.754Z,56.90
2023-03-27T21:35:47.949Z,58.40
2023-03-27T21:38:17.487Z,59.20
2023-03-27T21:40:47.664Z,59.10
2023-03-27T21:43:16.458Z,59.70
2023-03-27T21:45:45.672Z,60.00
2023-03-27T21:48:13.791Z,60.90
2023-03-27T21:50:42.125Z,61.60
2023-03-27T21:53:10.937Z,64.10
2023-03-27T21:55:39.074Z,65.60
2023-03-27T21:58:07.308Z,66.40
2023-03-27T22:00:35.357Z,67.00
2023-03-27T22:03:03.580Z,67.80
2023-03-27T22:05:34.252Z,67.70
2023-03-27T22:08:02.346Z,68.10
2023-03-27T22:10:30.305Z,68.90
2023-03-27T22:12:58.767Z,68.10
2023-03-27T22:15:26.673Z,68.20
2023-03-27T22:17:54.815Z,68.40
2023-03-27T22:20:22.926Z,68.70
2023-03-27T22:22:51.269Z,68.50
2023-03-27T22:25:19.944Z,69.20
2023-03-27T22:27:48.380Z,69.50
2023-03-27T22:30:16.441Z,70.10
2023-03-27T22:32:44.479Z,71.10
2023-03-27T22:35:12.458Z,71.60
2023-03-27T22:37:40.826Z,71.70
2023-03-27T22:40:09.389Z,72.20
2023-03-27T22:42:37.444Z,73.10
2023-03-27T22:45:06.857Z,73.60
2023-03-27T22:47:36.123Z,74.00
2023-03-27T22:50:06.742Z,74.30
2023-03-27T22:52:34.820Z,74.70
2023-03-27T22:55:02.815Z,74.70
2023-03-27T22:57:30.777Z,74.20
2023-03-27T22:59:58.516Z,73.60
2023-03-27T23:02:26.680Z,73.30
2023-03-27T23:04:54.569Z,73.00
2023-03-27T23:07:22.516Z,72.80
2023-03-27T23:09:50.792Z,72.40
2023-03-27T23:12:18.834Z,71.40
2023-03-27T23:14:46.717Z,71.40
2023-03-27T23:17:14.743Z,71.90
2023-03-27T23:19:42.844Z,72.10
2023-03-27T23:22:10.858Z,72.60
2023-03-27T23:24:38.663Z,72.90
2023-03-27T23:27:08.735Z,72.80
2023-03-27T23:29:36.526Z,72.90
2023-03-27T23:32:04.412Z,72.70
2023-03-27T23:34:32.499Z,72.80
2023-03-27T23:37:01.826Z,72.40
2023-03-27T23:39:29.712Z,72.20
2023-03-27T23:41:57.569Z,72.10
2023-03-27T23:44:25.605Z,71.90
2023-03-27T23:46:53.436Z,71.50
2023-03-27T23:49:21.475Z,70.40
2023-03-27T23:51:49.408Z,69.70
2023-03-27T23:54:17.382Z,68.90
2023-03-27T23:56:45.304Z,68.70
2023-03-27T23:59:13.392Z,68.50
